createdAt,value
2019-01-26T00:01:49.369Z,-1.57
2019-01-26T00:04:52.002Z,-1.53
2019-01-26T00:07:53.962Z,-1.47
2019-01-26T00:10:56.641Z,-1.47
2019-01-26T00:13:58.596Z,-1.53
2019-01-26T00:17:00.625Z,-1.50
2019-01-26T00:20:03.684Z,-1.50
2019-01-26T00:23:07.282Z,-1.48
2019-01-26T00:26:09.215Z,-1.44
2019-01-26T00:29:11.230Z,-1.46
2019-01-26T00:32:13.258Z,-1.46
2019-01-26T00:35:15.385Z,-1.41
2019-01-26T00:38:17.314Z,-1.41
2019-01-26T00:41:19.361Z,-1.45
2019-01-26T00:44:21.404Z,-1.45
2019-01-26T00:47:23.393Z,-1.50
2019-01-26T00:50:25.369Z,-1.53
2019-01-26T00:53:27.852Z,-1.56
2019-01-26T00:56:29.789Z,-1.62
2019-01-26T00:59:31.787Z,-1.73
2019-01-26T01:02:33.765Z,-1.85
2019-01-26T01:05:35.725Z,-2.01
2019-01-26T01:08:37.623Z,-2.17
2019-01-26T01:11:40.604Z,-2.31
2019-01-26T01:14:42.560Z,-2.42
2019-01-26T01:17:45.080Z,-2.59
2019-01-26T01:20:47.013Z,-2.69
2019-01-26T01:23:49.276Z,-2.78
2019-01-26T01:26:51.219Z,-2.94
2019-01-26T01:29:53.193Z,-3.05
2019-01-26T01:32:55.149Z,-3.14
2019-01-26T01:35:57.149Z,-3.22
2019-01-26T01:38:59.079Z,-3.29
2019-01-26T01:42:01.045Z,-3.29
2019-01-26T01:45:05.975Z,-3.30
2019-01-26T01:48:08.026Z,-3.34
2019-01-26T01:51:10.040Z,-3.45
2019-01-26T01:54:12.201Z,-3.50
2019-01-26T01:57:14.141Z,-3.49
2019-01-26T02:00:18.678Z,-3.54
2019-01-26T02:03:20.635Z,-3.54
2019-01-26T02:06:22.616Z,-3.49
2019-01-26T02:09:24.541Z,-3.41
2019-01-26T02:12:26.547Z,-3.11
2019-01-26T02:15:28.463Z,-3.11
2019-01-26T02:18:30.606Z,-2.95
2019-01-26T02:21:32.600Z,-2.84
2019-01-26T02:24:34.762Z,-2.84
2019-01-26T02:27:36.680Z,-2.68
2019-01-26T02:30:38.692Z,-2.68
2019-01-26T02:33:40.629Z,-2.61
2019-01-26T02:36:42.674Z,-2.61
2019-01-26T02:39:44.684Z,-2.54
2019-01-26T02:42:46.753Z,-2.50
2019-01-26T02:45:48.709Z,-2.42
2019-01-26T02:48:50.713Z,-2.35
2019-01-26T02:51:52.631Z,-2.31
2019-01-26T02:54:54.687Z,-2.30
2019-01-26T02:57:56.629Z,-2.21
2019-01-26T03:00:58.682Z,-2.15
2019-01-26T03:04:01.039Z,-2.12
2019-01-26T03:07:03.400Z,-2.07
2019-01-26T03:10:09.008Z,-2.10
2019-01-26T03:13:11.182Z,-2.14
2019-01-26T03:16:13.160Z,-2.17
2019-01-26T03:19:15.598Z,-2.09
2019-01-26T03:22:17.589Z,-2.08
2019-01-26T03:25:19.664Z,-2.02
2019-01-26T03:28:21.779Z,-2.04
2019-01-26T03:31:23.803Z,-1.98
2019-01-26T03:34:25.777Z,-1.94
2019-01-26T03:37:27.774Z,-1.91
2019-01-26T03:40:29.767Z,-1.83
2019-01-26T03:43:31.707Z,-1.73
2019-01-26T03:46:33.659Z,-1.69
2019-01-26T03:49:35.674Z,-1.65
2019-01-26T03:52:37.667Z,-1.60
2019-01-26T03:55:39.669Z,-1.54
2019-01-26T03:58:41.778Z,-1.51
2019-01-26T04:01:44.076Z,-1.49
2019-01-26T04:04:45.991Z,-1.43
2019-01-26T04:07:48.127Z,-1.41
2019-01-26T04:10:50.063Z,-1.36
2019-01-26T04:13:52.968Z,-1.35
2019-01-26T04:16:54.951Z,-1.33
2019-01-26T04:19:57.001Z,-1.31
2019-01-26T04:22:58.967Z,-1.32
2019-01-26T04:26:01.008Z,-1.39
2019-01-26T04:29:03.038Z,-1.36
2019-01-26T04:32:05.101Z,-1.27
2019-01-26T04:35:08.360Z,-1.29
2019-01-26T04:38:10.371Z,-1.32
2019-01-26T04:41:13.434Z,-1.40
2019-01-26T04:44:15.431Z,-1.50
2019-01-26T04:47:17.348Z,-1.47
2019-01-26T04:50:20.275Z,-1.56
2019-01-26T04:53:22.231Z,-1.53
2019-01-26T04:56:24.268Z,-1.50
2019-01-26T04:59:26.237Z,-1.44
2019-01-26T05:02:28.317Z,-1.41
2019-01-26T05:05:30.271Z,-1.30
2019-01-26T05:08:32.284Z,-1.25
2019-01-26T05:11:34.254Z,-1.19
2019-01-26T05:14:36.453Z,-1.09
2019-01-26T05:17:39.381Z,-1.08
2019-01-26T05:20:42.080Z,-1.04
2019-01-26T05:23:44.071Z,-1.02
2019-01-26T05:26:46.191Z,-1.01
2019-01-26T05:29:48.160Z,-0.96
2019-01-26T05:32:50.261Z,-0.99
2019-01-26T05:35:52.281Z,-0.99
2019-01-26T05:38:54.304Z,-1.02
2019-01-26T05:41:56.307Z,-1.05
2019-01-26T05:44:58.307Z,-0.98
2019-01-26T05:48:00.230Z,-1.01
2019-01-26T05:51:02.288Z,-0.95
2019-01-26T05:54:04.171Z,-0.93
2019-01-26T05:57:06.160Z,-0.85
2019-01-26T06:00:11.712Z,-0.85
2019-01-26T06:03:13.735Z,-0.83
2019-01-26T06:06:15.690Z,-0.84
2019-01-26T06:09:17.684Z,-0.81
2019-01-26T06:12:19.673Z,-0.74
2019-01-26T06:15:21.872Z,-0.69
2019-01-26T06:18:23.853Z,-0.69
2019-01-26T06:21:25.853Z,-0.70
2019-01-26T06:24:27.855Z,-0.72
2019-01-26T06:27:29.998Z,-0.73
2019-01-26T06:30:32.101Z,-0.63
2019-01-26T06:33:34.209Z,-0.62
2019-01-26T06:36:36.136Z,-0.58
2019-01-26T06:39:38.168Z,-0.51
2019-01-26T06:42:40.251Z,-0.44
2019-01-26T06:45:42.291Z,-0.43
2019-01-26T06:48:45.574Z,-0.38
2019-01-26T06:51:53.171Z,-0.33
2019-01-26T06:54:55.100Z,-0.35
2019-01-26T06:57:57.098Z,-0.32
2019-01-26T07:00:59.098Z,-0.33
2019-01-26T07:04:01.449Z,-0.31
2019-01-26T07:07:08.259Z,-0.30
2019-01-26T07:10:10.293Z,-0.28
2019-01-26T07:13:12.253Z,-0.29
2019-01-26T07:16:16.087Z,-0.21
2019-01-26T07:19:18.027Z,-0.07
2019-01-26T07:22:20.020Z,-0.06
2019-01-26T07:25:21.975Z,0.04
2019-01-26T07:28:24.034Z,0.00
2019-01-26T07:31:26.041Z,-0.12
2019-01-26T07:34:28.250Z,-0.14
2019-01-26T07:37:30.200Z,-0.16
2019-01-26T07:40:32.203Z,-0.12
2019-01-26T07:43:34.171Z,-0.10
2019-01-26T07:46:36.522Z,-0.02
2019-01-26T07:49:38.451Z,0.06
2019-01-26T07:52:40.411Z,0.05
2019-01-26T07:55:42.415Z,0.07
2019-01-26T07:58:44.429Z,0.17
2019-01-26T08:01:46.425Z,0.27
2019-01-26T08:04:48.501Z,0.30
2019-01-26T08:07:50.793Z,0.37
2019-01-26T08:10:52.759Z,0.37
2019-01-26T08:13:54.729Z,0.37
2019-01-26T08:16:56.726Z,0.47
2019-01-26T08:19:58.816Z,0.71
2019-01-26T08:23:00.912Z,0.75
2019-01-26T08:26:03.100Z,0.80
2019-01-26T08:29:05.231Z,0.84
2019-01-26T08:32:07.590Z,0.80
2019-01-26T08:35:09.818Z,0.95
2019-01-26T08:38:11.771Z,0.96
2019-01-26T08:41:13.734Z,0.98
2019-01-26T08:44:15.640Z,1.00
2019-01-26T08:47:17.644Z,1.11
2019-01-26T08:50:21.902Z,1.12
2019-01-26T08:53:23.859Z,1.21
2019-01-26T08:56:25.808Z,1.26
2019-01-26T08:59:27.810Z,1.34
2019-01-26T09:02:31.575Z,1.30
2019-01-26T09:05:37.972Z,1.28
2019-01-26T09:08:39.939Z,1.30
2019-01-26T09:11:41.945Z,1.39
2019-01-26T09:14:43.855Z,1.47
2019-01-26T09:17:45.810Z,1.48
2019-01-26T09:20:47.735Z,1.50
2019-01-26T09:23:49.841Z,1.49
2019-01-26T09:26:51.811Z,1.54
2019-01-26T09:29:53.961Z,1.55
2019-01-26T09:32:55.855Z,1.74
2019-01-26T09:35:58.194Z,1.79
2019-01-26T09:39:00.117Z,1.78
2019-01-26T09:42:07.239Z,1.79
2019-01-26T09:45:12.963Z,1.89
2019-01-26T09:48:14.972Z,1.99
2019-01-26T09:51:18.409Z,2.15
2019-01-26T09:54:20.445Z,2.37
2019-01-26T09:57:22.382Z,2.53
2019-01-26T10:00:27.886Z,2.66
2019-01-26T10:03:29.847Z,2.84
2019-01-26T10:06:31.929Z,3.03
2019-01-26T10:09:40.360Z,3.17
2019-01-26T10:12:42.508Z,3.19
2019-01-26T10:15:44.435Z,3.15
2019-01-26T10:18:53.351Z,3.33
2019-01-26T10:21:50.320Z,3.46
2019-01-26T10:24:52.482Z,3.62
2019-01-26T10:27:54.636Z,3.72
2019-01-26T10:30:58.160Z,3.79
2019-01-26T10:34:00.203Z,3.80
2019-01-26T10:37:02.657Z,3.80
2019-01-26T10:40:10.037Z,3.79
2019-01-26T10:43:13.891Z,3.75
2019-01-26T10:46:15.859Z,3.78
2019-01-26T10:49:17.918Z,3.90
2019-01-26T10:52:19.920Z,4.05
2019-01-26T10:55:22.042Z,4.15
2019-01-26T10:58:24.093Z,4.27
2019-01-26T11:01:26.131Z,4.53
2019-01-26T11:04:28.118Z,4.72
2019-01-26T11:07:30.305Z,4.83
2019-01-26T11:10:32.807Z,4.80
2019-01-26T11:13:36.204Z,4.60
2019-01-26T11:16:39.150Z,4.51
2019-01-26T11:19:41.167Z,4.50
2019-01-26T11:22:43.132Z,4.39
2019-01-26T11:25:45.078Z,4.44
2019-01-26T11:28:47.125Z,4.51
2019-01-26T11:31:49.234Z,4.48
2019-01-26T11:34:51.209Z,4.43
2019-01-26T11:37:53.351Z,4.40
2019-01-26T11:40:55.412Z,4.36
2019-01-26T11:43:57.412Z,4.36
2019-01-26T11:46:59.381Z,4.41
2019-01-26T11:50:02.922Z,4.37
2019-01-26T11:53:04.898Z,4.43
2019-01-26T11:56:11.585Z,4.35
2019-01-26T11:59:13.728Z,4.39
2019-01-26T12:02:17.588Z,4.50
2019-01-26T12:05:21.324Z,4.57
2019-01-26T12:08:24.288Z,4.58
2019-01-26T12:11:27.352Z,4.45
2019-01-26T12:14:29.494Z,4.33
2019-01-26T12:17:31.417Z,4.09
2019-01-26T12:20:33.446Z,4.02
2019-01-26T12:23:35.409Z,4.00
2019-01-26T12:26:37.597Z,4.04
2019-01-26T12:29:40.879Z,4.03
2019-01-26T12:32:43.096Z,4.01
2019-01-26T12:35:45.036Z,4.00
2019-01-26T12:38:47.073Z,3.88
2019-01-26T12:41:49.024Z,3.86
2019-01-26T12:44:50.998Z,3.93
2019-01-26T12:47:52.973Z,4.08
2019-01-26T12:50:55.053Z,4.21
2019-01-26T12:53:57.896Z,4.29
2019-01-26T12:56:59.929Z,4.39
2019-01-26T13:00:02.041Z,4.50
2019-01-26T13:03:04.167Z,4.48
2019-01-26T13:06:06.406Z,4.50
2019-01-26T13:09:08.666Z,4.47
2019-01-26T13:12:11.058Z,4.44
2019-01-26T13:15:15.327Z,4.41
2019-01-26T13:18:17.533Z,4.38
2019-01-26T13:21:21.034Z,4.35
2019-01-26T13:24:23.224Z,4.18
2019-01-26T13:27:26.521Z,4.06
2019-01-26T13:30:29.698Z,3.97
2019-01-26T13:33:31.910Z,3.88
2019-01-26T13:36:34.221Z,3.84
2019-01-26T13:39:36.400Z,3.77
2019-01-26T13:42:38.586Z,3.74
2019-01-26T13:45:43.494Z,3.68
2019-01-26T13:48:45.461Z,3.63
2019-01-26T13:51:48.169Z,3.58
2019-01-26T13:54:50.138Z,3.56
2019-01-26T13:57:52.207Z,3.57
2019-01-26T14:00:54.193Z,3.59
2019-01-26T14:03:56.221Z,3.62
2019-01-26T14:06:58.137Z,3.66
2019-01-26T14:10:00.200Z,3.64
2019-01-26T14:13:02.262Z,3.66
2019-01-26T14:16:04.389Z,3.66
2019-01-26T14:19:06.332Z,3.71
2019-01-26T14:22:08.511Z,3.78
2019-01-26T14:25:12.407Z,3.80
2019-01-26T14:28:14.527Z,3.83
2019-01-26T14:31:16.591Z,3.86
2019-01-26T14:34:18.766Z,3.88
2019-01-26T14:37:20.691Z,3.86
2019-01-26T14:40:22.686Z,3.85
2019-01-26T14:43:24.650Z,3.81
2019-01-26T14:46:26.663Z,3.80
2019-01-26T14:49:28.638Z,3.77
2019-01-26T14:52:30.805Z,3.78
2019-01-26T14:55:32.727Z,3.76
2019-01-26T14:58:34.812Z,3.77
2019-01-26T15:01:36.779Z,3.73
2019-01-26T15:04:38.774Z,3.80
2019-01-26T15:07:40.754Z,3.81
2019-01-26T15:10:42.728Z,3.82
2019-01-26T15:13:44.668Z,3.81
2019-01-26T15:16:46.600Z,3.83
2019-01-26T15:19:48.529Z,3.89
2019-01-26T15:22:50.485Z,3.94
2019-01-26T15:25:52.403Z,3.95
2019-01-26T15:28:54.516Z,3.90
2019-01-26T15:31:56.608Z,3.87
2019-01-26T15:34:58.684Z,3.81
2019-01-26T15:38:00.658Z,3.79
2019-01-26T15:41:02.660Z,3.78
2019-01-26T15:44:04.575Z,3.80
2019-01-26T15:47:06.531Z,3.77
2019-01-26T15:50:13.172Z,3.74
2019-01-26T15:53:15.611Z,3.69
2019-01-26T15:56:17.564Z,3.66
2019-01-26T15:59:19.512Z,3.69
2019-01-26T16:02:21.675Z,3.67
2019-01-26T16:05:23.685Z,3.68
2019-01-26T16:08:25.646Z,3.64
2019-01-26T16:11:27.671Z,3.58
2019-01-26T16:14:29.622Z,3.65
2019-01-26T16:17:31.617Z,3.70
2019-01-26T16:20:33.604Z,3.73
2019-01-26T16:23:35.592Z,3.73
2019-01-26T16:26:37.525Z,3.74
2019-01-26T16:29:39.564Z,3.70
2019-01-26T16:32:41.595Z,3.67
2019-01-26T16:35:43.695Z,3.70
2019-01-26T16:38:45.796Z,3.73
2019-01-26T16:41:49.412Z,3.69
2019-01-26T16:44:51.372Z,3.67
2019-01-26T16:47:53.438Z,3.66
2019-01-26T16:50:55.395Z,3.68
2019-01-26T16:53:57.801Z,3.70
2019-01-26T16:56:59.694Z,3.67
2019-01-26T17:00:01.713Z,3.64
2019-01-26T17:03:04.384Z,3.60
2019-01-26T17:06:06.524Z,3.61
2019-01-26T17:09:08.573Z,3.59
2019-01-26T17:12:10.610Z,3.54
2019-01-26T17:15:12.764Z,3.50
2019-01-26T17:18:16.909Z,3.50
2019-01-26T17:21:18.855Z,3.55
2019-01-26T17:24:21.591Z,3.56
2019-01-26T17:27:23.531Z,3.54
2019-01-26T17:30:38.292Z,3.62
2019-01-26T17:33:42.050Z,3.68
2019-01-26T17:36:44.179Z,3.67
2019-01-26T17:39:47.490Z,3.67
2019-01-26T17:42:51.611Z,3.69
2019-01-26T17:45:53.541Z,3.65
2019-01-26T17:48:55.568Z,3.64
2019-01-26T17:51:58.737Z,3.66
2019-01-26T17:55:01.071Z,3.66
2019-01-26T17:58:03.684Z,3.72
2019-01-26T18:01:06.656Z,3.79
2019-01-26T18:04:08.605Z,3.84
2019-01-26T18:07:10.656Z,3.85
2019-01-26T18:10:19.418Z,3.91
2019-01-26T18:13:21.453Z,3.91
2019-01-26T18:16:23.731Z,3.91
2019-01-26T18:19:27.331Z,3.87
2019-01-26T18:22:29.295Z,3.90
2019-01-26T18:25:33.162Z,3.95
2019-01-26T18:28:35.948Z,3.98
2019-01-26T18:31:39.210Z,4.05
2019-01-26T18:34:42.771Z,4.00
2019-01-26T18:37:44.871Z,4.02
2019-01-26T18:40:46.903Z,4.06
2019-01-26T18:43:52.603Z,4.09
2019-01-26T18:46:54.561Z,3.99
2019-01-26T18:49:56.606Z,3.90
2019-01-26T18:52:58.682Z,3.97
2019-01-26T18:56:00.716Z,4.00
2019-01-26T18:59:05.293Z,4.01
2019-01-26T19:02:09.848Z,3.94
2019-01-26T19:05:15.360Z,3.86
2019-01-26T19:08:19.469Z,3.83
2019-01-26T19:11:21.844Z,3.78
2019-01-26T19:14:23.877Z,3.74
2019-01-26T19:17:25.841Z,3.76
2019-01-26T19:20:27.867Z,3.71
2019-01-26T19:23:30.187Z,3.69
2019-01-26T19:26:34.444Z,3.71
2019-01-26T19:29:36.456Z,3.81
2019-01-26T19:32:41.714Z,3.84
2019-01-26T19:35:43.695Z,3.86
2019-01-26T19:38:47.335Z,3.88
2019-01-26T19:41:52.374Z,3.86
2019-01-26T19:44:54.473Z,3.87
2019-01-26T19:47:57.957Z,3.87
2019-01-26T19:51:00.311Z,3.91
2019-01-26T19:54:03.969Z,3.96
2019-01-26T19:57:07.175Z,4.01
2019-01-26T20:00:11.490Z,4.01
2019-01-26T20:03:14.842Z,4.02
2019-01-26T20:06:18.011Z,4.05
2019-01-26T20:09:20.519Z,4.08
2019-01-26T20:12:23.519Z,4.08
2019-01-26T20:15:27.162Z,4.07
2019-01-26T20:18:29.438Z,4.06
2019-01-26T20:21:31.793Z,3.99
2019-01-26T20:24:34.503Z,3.90
2019-01-26T20:27:37.026Z,3.89
2019-01-26T20:30:43.283Z,3.95
2019-01-26T20:33:54.015Z,3.93
2019-01-26T20:36:56.000Z,3.96
2019-01-26T20:39:57.972Z,3.99
2019-01-26T20:42:59.950Z,4.03
2019-01-26T20:46:01.978Z,4.04
2019-01-26T20:49:04.038Z,4.06
2019-01-26T20:52:06.100Z,4.04
2019-01-26T20:55:10.514Z,4.03
2019-01-26T20:58:12.469Z,4.07
2019-01-26T21:01:16.613Z,4.09
2019-01-26T21:04:23.864Z,4.15
2019-01-26T21:07:25.785Z,4.17
2019-01-26T21:10:31.991Z,4.17
2019-01-26T21:13:34.073Z,4.13
2019-01-26T21:16:38.204Z,4.11
2019-01-26T21:19:40.494Z,4.15
2019-01-26T21:22:42.497Z,4.19
2019-01-26T21:25:46.202Z,4.18
2019-01-26T21:28:50.272Z,4.14
2019-01-26T21:31:54.733Z,4.07
2019-01-26T21:34:58.507Z,4.07
2019-01-26T21:38:00.871Z,4.00
2019-01-26T21:41:05.873Z,4.01
2019-01-26T21:44:07.831Z,3.99
2019-01-26T21:47:09.760Z,4.04
2019-01-26T21:50:15.152Z,4.01
2019-01-26T21:53:17.102Z,3.98
2019-01-26T21:56:21.095Z,3.98
2019-01-26T21:59:22.970Z,3.94
2019-01-26T22:02:26.509Z,3.94
2019-01-26T22:05:28.347Z,3.89
2019-01-26T22:08:30.359Z,3.91
2019-01-26T22:11:32.723Z,3.94
2019-01-26T22:14:35.663Z,3.94
2019-01-26T22:17:37.640Z,3.85
2019-01-26T22:20:39.521Z,3.86
2019-01-26T22:23:43.253Z,3.88
2019-01-26T22:26:45.201Z,3.88
2019-01-26T22:29:47.102Z,3.87
2019-01-26T22:32:49.231Z,3.85
2019-01-26T22:35:51.183Z,3.85
2019-01-26T22:38:53.183Z,3.89
2019-01-26T22:41:55.089Z,3.89
2019-01-26T22:44:57.152Z,3.89
2019-01-26T22:47:59.060Z,3.91
2019-01-26T22:51:01.005Z,3.87
2019-01-26T22:54:03.945Z,3.87
2019-01-26T22:57:05.828Z,3.80
2019-01-26T23:00:27.318Z,3.73
2019-01-26T23:03:37.399Z,3.67
2019-01-26T23:06:42.994Z,3.60
2019-01-26T23:09:48.600Z,3.59
2019-01-26T23:12:55.098Z,3.60
2019-01-26T23:16:13.174Z,3.66
2019-01-26T23:19:33.977Z,3.67
2019-01-26T23:23:05.658Z,3.56
2019-01-26T23:26:11.185Z,3.53
2019-01-26T23:29:19.674Z,3.41
2019-01-26T23:32:21.523Z,3.43
2019-01-26T23:35:23.413Z,3.47
2019-01-26T23:38:25.501Z,3.49
2019-01-26T23:41:27.394Z,3.53
2019-01-26T23:44:29.353Z,3.60
2019-01-26T23:47:31.381Z,3.58
2019-01-26T23:50:33.304Z,3.54
2019-01-26T23:53:35.421Z,3.58
2019-01-26T23:56:37.320Z,3.60
2019-01-26T23:59:39.243Z,3.58
